SDM6346 ULMM-ULLI
Flight info
| Callsign | SDM6346 |
|---|---|
| Flight time | 1h 38m |
| Altitude | 37000 |
| Route | ASGOR2N ASGOR T693 PILAN M856 KUKUM/K0846F360 M856 GIKUR T458 BEPOL BEPOL1V |
| Aircraft | A319/M-SDE3FGHIRWY/LB1 |
Departure
| Time | 2026-05-04 20:15 |
|---|---|
| Airport | Emperor Nicholas II Murmansk Airport (ULMM) |
Arrival
| Time | 2026-05-04 21:53 |
|---|---|
| Airport | Pulkovo Airport (ULLI) |
| Time | Latitude | Longitude | Altitude | Speed | Heading |
|---|---|---|---|---|---|
| 2026-05-04 19:30 | 68.78517 | 32.75666 | 276 ft | 0 kts | 56° |
| 2026-05-04 20:03 | 68.78511 | 32.75640 | 275 ft | 4 kts | 56° |
| 2026-05-04 20:03 | 68.78498 | 32.75585 | 280 ft | 2 kts | 57° |
| 2026-05-04 20:04 | 68.78486 | 32.75555 | 281 ft | 4 kts | 342° |
| 2026-05-04 20:04 | 68.78464 | 32.75586 | 275 ft | 4 kts | 317° |
| 2026-05-04 20:04 | 68.78448 | 32.75643 | 282 ft | 4 kts | 307° |
| 2026-05-04 20:04 | 68.78434 | 32.75683 | 277 ft | 4 kts | 323° |
| 2026-05-04 20:05 | 68.78412 | 32.75726 | 275 ft | 4 kts | 323° |
| 2026-05-04 20:05 | 68.78405 | 32.75741 | 275 ft | 0 kts | 322° |
| 2026-05-04 20:10 | 68.78419 | 32.75710 | 279 ft | 5 kts | 322° |
| 2026-05-04 20:10 | 68.78428 | 32.75621 | 275 ft | 5 kts | 244° |
| 2026-05-04 20:11 | 68.78406 | 32.75528 | 270 ft | 6 kts | 238° |
| 2026-05-04 20:11 | 68.78383 | 32.75425 | 275 ft | 7 kts | 237° |
| 2026-05-04 20:11 | 68.78356 | 32.75314 | 275 ft | 7 kts | 236° |
| 2026-05-04 20:11 | 68.78325 | 32.75188 | 275 ft | 9 kts | 236° |
| 2026-05-04 20:12 | 68.78293 | 32.75028 | 275 ft | 10 kts | 262° |
| 2026-05-04 20:12 | 68.78335 | 32.74904 | 275 ft | 11 kts | 329° |
| 2026-05-04 20:12 | 68.78424 | 32.74757 | 274 ft | 18 kts | 327° |
| 2026-05-04 20:12 | 68.78544 | 32.74522 | 272 ft | 23 kts | 326° |
| 2026-05-04 20:13 | 68.78672 | 32.74287 | 274 ft | 22 kts | 326° |
| 2026-05-04 20:13 | 68.78798 | 32.74055 | 273 ft | 22 kts | 326° |
| 2026-05-04 20:13 | 68.78928 | 32.73814 | 270 ft | 22 kts | 326° |
| 2026-05-04 20:13 | 68.79030 | 32.73628 | 271 ft | 13 kts | 326° |
| 2026-05-04 20:14 | 68.79100 | 32.73539 | 272 ft | 10 kts | 356° |
| 2026-05-04 20:14 | 68.79131 | 32.73481 | 271 ft | 5 kts | 241° |
| 2026-05-04 20:14 | 68.79094 | 32.73509 | 272 ft | 10 kts | 147° |
| 2026-05-04 20:14 | 68.78901 | 32.73864 | 270 ft | 69 kts | 146° |
| 2026-05-04 20:15 | 68.78309 | 32.74958 | 280 ft | 133 kts | 146° |
| 2026-05-04 20:15 | 68.77426 | 32.76581 | 585 ft | 155 kts | 147° |
| 2026-05-04 20:15 | 68.76536 | 32.78187 | 1328 ft | 151 kts | 148° |
| 2026-05-04 20:15 | 68.75667 | 32.79789 | 1998 ft | 150 kts | 149° |
| 2026-05-04 20:16 | 68.74805 | 32.81379 | 2607 ft | 149 kts | 148° |
| 2026-05-04 20:16 | 68.73945 | 32.82963 | 3169 ft | 149 kts | 148° |
| 2026-05-04 20:16 | 68.73089 | 32.84541 | 3631 ft | 155 kts | 148° |
| 2026-05-04 20:16 | 68.72111 | 32.86334 | 3888 ft | 178 kts | 148° |
| 2026-05-04 20:17 | 68.71027 | 32.88305 | 4133 ft | 201 kts | 148° |
| 2026-05-04 20:17 | 68.69786 | 32.90565 | 4417 ft | 226 kts | 148° |
| 2026-05-04 20:17 | 68.68396 | 32.93058 | 4816 ft | 250 kts | 151° |
| 2026-05-04 20:17 | 68.66743 | 32.94799 | 5528 ft | 259 kts | 169° |
| 2026-05-04 20:18 | 68.64940 | 32.95025 | 6391 ft | 262 kts | 188° |
| 2026-05-04 20:18 | 68.63186 | 32.93647 | 7270 ft | 265 kts | 206° |
| 2026-05-04 20:18 | 68.61552 | 32.91244 | 8175 ft | 268 kts | 208° |
| 2026-05-04 20:18 | 68.59908 | 32.88794 | 9081 ft | 271 kts | 208° |
| 2026-05-04 20:19 | 68.58241 | 32.86327 | 9885 ft | 277 kts | 208° |
| 2026-05-04 20:19 | 68.56475 | 32.83725 | 10185 ft | 300 kts | 208° |
| 2026-05-04 20:19 | 68.54571 | 32.80928 | 10545 ft | 318 kts | 208° |
| 2026-05-04 20:19 | 68.52557 | 32.78264 | 11232 ft | 325 kts | 201° |
| 2026-05-04 20:20 | 68.50355 | 32.76685 | 12008 ft | 331 kts | 189° |
| 2026-05-04 20:20 | 68.48044 | 32.76255 | 12771 ft | 335 kts | 183° |
| 2026-05-04 20:20 | 68.45699 | 32.76023 | 13516 ft | 339 kts | 184° |
| 2026-05-04 20:20 | 68.43328 | 32.75780 | 14190 ft | 343 kts | 184° |
| 2026-05-04 20:21 | 68.40934 | 32.75575 | 14887 ft | 346 kts | 183° |
| 2026-05-04 20:21 | 68.38517 | 32.75532 | 15578 ft | 349 kts | 182° |
| 2026-05-04 20:21 | 68.33633 | 32.75687 | 17042 ft | 352 kts | 182° |
| 2026-05-04 20:22 | 68.31174 | 32.75777 | 17758 ft | 354 kts | 182° |
| 2026-05-04 20:22 | 68.28702 | 32.75856 | 18363 ft | 357 kts | 182° |
| 2026-05-04 20:22 | 68.26214 | 32.75915 | 18975 ft | 359 kts | 183° |
| 2026-05-04 20:22 | 68.23711 | 32.75960 | 19602 ft | 360 kts | 184° |
| 2026-05-04 20:23 | 68.21199 | 32.75999 | 20216 ft | 362 kts | 184° |
| 2026-05-04 20:23 | 68.18670 | 32.76031 | 20839 ft | 364 kts | 184° |
| 2026-05-04 20:23 | 68.16129 | 32.76062 | 21441 ft | 366 kts | 185° |
| 2026-05-04 20:23 | 68.13574 | 32.76095 | 22037 ft | 368 kts | 185° |
| 2026-05-04 20:24 | 68.11005 | 32.76132 | 22612 ft | 370 kts | 185° |
| 2026-05-04 20:24 | 68.08419 | 32.76171 | 23163 ft | 372 kts | 185° |
| 2026-05-04 20:24 | 68.05820 | 32.76208 | 23607 ft | 375 kts | 185° |
| 2026-05-04 20:24 | 68.03204 | 32.76243 | 24036 ft | 377 kts | 186° |
| 2026-05-04 20:25 | 68.00572 | 32.76283 | 24460 ft | 379 kts | 186° |
| 2026-05-04 20:25 | 67.97921 | 32.76328 | 24875 ft | 381 kts | 186° |
| 2026-05-04 20:25 | 67.95296 | 32.76399 | 25270 ft | 384 kts | 186° |
| 2026-05-04 20:25 | 67.92619 | 32.76496 | 25660 ft | 386 kts | 186° |
| 2026-05-04 20:26 | 67.89920 | 32.76607 | 26056 ft | 389 kts | 186° |
| 2026-05-04 20:26 | 67.87206 | 32.76725 | 26404 ft | 391 kts | 186° |
| 2026-05-04 20:26 | 67.84482 | 32.76845 | 26816 ft | 393 kts | 186° |
| 2026-05-04 20:26 | 67.81742 | 32.76969 | 27225 ft | 395 kts | 186° |
| 2026-05-04 20:27 | 67.78991 | 32.77088 | 27615 ft | 397 kts | 187° |
| 2026-05-04 20:27 | 67.76225 | 32.77194 | 27986 ft | 399 kts | 187° |
| 2026-05-04 20:27 | 67.73445 | 32.77297 | 28352 ft | 401 kts | 187° |
| 2026-05-04 20:27 | 67.70646 | 32.77401 | 28713 ft | 403 kts | 187° |
| 2026-05-04 20:28 | 67.67832 | 32.77502 | 29059 ft | 405 kts | 187° |
| 2026-05-04 20:28 | 67.65006 | 32.77605 | 29402 ft | 407 kts | 187° |
| 2026-05-04 20:28 | 67.62166 | 32.77707 | 29725 ft | 409 kts | 187° |
| 2026-05-04 20:28 | 67.59309 | 32.77814 | 29962 ft | 412 kts | 187° |
| 2026-05-04 20:29 | 67.56439 | 32.77929 | 30215 ft | 413 kts | 187° |
| 2026-05-04 20:29 | 67.53555 | 32.78046 | 30440 ft | 416 kts | 187° |
| 2026-05-04 20:29 | 67.50649 | 32.78157 | 30653 ft | 419 kts | 186° |
| 2026-05-04 20:29 | 67.47771 | 32.78264 | 30929 ft | 420 kts | 186° |
| 2026-05-04 20:30 | 67.44808 | 32.78379 | 31203 ft | 421 kts | 186° |
| 2026-05-04 20:30 | 67.41903 | 32.78555 | 31442 ft | 423 kts | 185° |
| 2026-05-04 20:30 | 67.38955 | 32.78794 | 31698 ft | 425 kts | 185° |
| 2026-05-04 20:30 | 67.35988 | 32.79065 | 31961 ft | 427 kts | 184° |
| 2026-05-04 20:31 | 67.33010 | 32.79351 | 32196 ft | 429 kts | 184° |
| 2026-05-04 20:31 | 67.30024 | 32.79635 | 32452 ft | 431 kts | 184° |
| 2026-05-04 20:31 | 67.27017 | 32.79905 | 32668 ft | 432 kts | 184° |
| 2026-05-04 20:31 | 67.24007 | 32.80159 | 32930 ft | 433 kts | 184° |
| 2026-05-04 20:32 | 67.20992 | 32.80402 | 33181 ft | 435 kts | 184° |
| 2026-05-04 20:32 | 67.17966 | 32.80642 | 33445 ft | 435 kts | 184° |
| 2026-05-04 20:32 | 67.14939 | 32.80882 | 33719 ft | 435 kts | 184° |
| 2026-05-04 20:32 | 67.11911 | 32.81122 | 33947 ft | 436 kts | 184° |
| 2026-05-04 20:33 | 67.08874 | 32.81367 | 34189 ft | 436 kts | 184° |
| 2026-05-04 20:33 | 67.05835 | 32.81618 | 34438 ft | 436 kts | 184° |
| 2026-05-04 20:33 | 67.02799 | 32.81867 | 34656 ft | 437 kts | 184° |
| 2026-05-04 20:33 | 66.99761 | 32.82116 | 34875 ft | 437 kts | 184° |
| 2026-05-04 20:34 | 66.96721 | 32.82363 | 35080 ft | 437 kts | 183° |
| 2026-05-04 20:34 | 66.93680 | 32.82607 | 35267 ft | 438 kts | 183° |
| 2026-05-04 20:34 | 66.90633 | 32.82847 | 35462 ft | 438 kts | 183° |
| 2026-05-04 20:34 | 66.87585 | 32.83083 | 35663 ft | 438 kts | 183° |
| 2026-05-04 20:35 | 66.84535 | 32.83317 | 35845 ft | 438 kts | 183° |
| 2026-05-04 20:35 | 66.81482 | 32.83557 | 36027 ft | 439 kts | 183° |
| 2026-05-04 20:35 | 66.78472 | 32.83800 | 36199 ft | 438 kts | 183° |
| 2026-05-04 20:35 | 66.75429 | 32.84042 | 36408 ft | 437 kts | 183° |
| 2026-05-04 20:36 | 66.72386 | 32.84282 | 36542 ft | 438 kts | 183° |
| 2026-05-04 20:36 | 66.69309 | 32.84526 | 36565 ft | 437 kts | 183° |
| 2026-05-04 20:36 | 66.63241 | 32.85133 | 36559 ft | 436 kts | 182° |
| 2026-05-04 20:37 | 66.57215 | 32.85816 | 36562 ft | 436 kts | 182° |
| 2026-05-04 20:37 | 66.51153 | 32.86485 | 36561 ft | 436 kts | 182° |
| 2026-05-04 20:38 | 66.45092 | 32.87132 | 36554 ft | 436 kts | 183° |
| 2026-05-04 20:38 | 66.39027 | 32.87753 | 36550 ft | 436 kts | 183° |
| 2026-05-04 20:39 | 66.32965 | 32.88242 | 36559 ft | 435 kts | 184° |
| 2026-05-04 20:39 | 66.26914 | 32.88561 | 36565 ft | 435 kts | 184° |
| 2026-05-04 20:40 | 66.20862 | 32.88886 | 36570 ft | 435 kts | 184° |
| 2026-05-04 20:40 | 66.14816 | 32.89248 | 36527 ft | 435 kts | 184° |
| 2026-05-04 20:41 | 66.08763 | 32.89619 | 36555 ft | 434 kts | 184° |
| 2026-05-04 20:41 | 66.02714 | 32.89977 | 36537 ft | 434 kts | 184° |
| 2026-05-04 20:42 | 65.96678 | 32.90331 | 36552 ft | 434 kts | 184° |
| 2026-05-04 20:42 | 65.90669 | 32.90698 | 36569 ft | 434 kts | 184° |
| 2026-05-04 20:43 | 65.84643 | 32.91067 | 36562 ft | 433 kts | 184° |
| 2026-05-04 20:43 | 65.78614 | 32.91417 | 36560 ft | 433 kts | 184° |
| 2026-05-04 20:44 | 65.73563 | 32.91653 | 36563 ft | 432 kts | 185° |
| 2026-05-04 20:44 | 65.67560 | 32.91423 | 36555 ft | 431 kts | 187° |
| 2026-05-04 20:45 | 65.61566 | 32.90958 | 36545 ft | 431 kts | 187° |
| 2026-05-04 20:45 | 65.55567 | 32.90572 | 36514 ft | 431 kts | 187° |
| 2026-05-04 20:46 | 65.49606 | 32.90283 | 36528 ft | 431 kts | 186° |
| 2026-05-04 20:46 | 65.43605 | 32.89991 | 36547 ft | 431 kts | 186° |
| 2026-05-04 20:47 | 65.37603 | 32.89702 | 36543 ft | 431 kts | 186° |
| 2026-05-04 20:47 | 65.31596 | 32.89406 | 36544 ft | 431 kts | 186° |
| 2026-05-04 20:48 | 65.25595 | 32.89112 | 36523 ft | 431 kts | 186° |
| 2026-05-04 20:48 | 65.19597 | 32.88825 | 36548 ft | 431 kts | 186° |
| 2026-05-04 20:49 | 65.13597 | 32.88532 | 36549 ft | 431 kts | 187° |
| 2026-05-04 20:49 | 65.07603 | 32.88232 | 36539 ft | 431 kts | 187° |
| 2026-05-04 20:50 | 65.01612 | 32.87927 | 36544 ft | 431 kts | 187° |
| 2026-05-04 20:50 | 64.95621 | 32.87641 | 36506 ft | 431 kts | 187° |
| 2026-05-04 20:51 | 64.89632 | 32.87375 | 36502 ft | 431 kts | 187° |
| 2026-05-04 20:51 | 64.83643 | 32.87085 | 36521 ft | 430 kts | 187° |
| 2026-05-04 20:52 | 64.77654 | 32.86787 | 36532 ft | 430 kts | 187° |
| 2026-05-04 20:52 | 64.71671 | 32.86507 | 36538 ft | 430 kts | 187° |
| 2026-05-04 20:53 | 64.65683 | 32.86225 | 36534 ft | 430 kts | 187° |
| 2026-05-04 20:53 | 64.59697 | 32.85932 | 36535 ft | 430 kts | 187° |
| 2026-05-04 20:54 | 64.53707 | 32.85665 | 36535 ft | 430 kts | 187° |
| 2026-05-04 20:54 | 64.47763 | 32.85388 | 36522 ft | 430 kts | 187° |
| 2026-05-04 20:55 | 64.41782 | 32.85116 | 36531 ft | 430 kts | 187° |
| 2026-05-04 20:55 | 64.35805 | 32.84838 | 36534 ft | 429 kts | 187° |
| 2026-05-04 20:56 | 64.29831 | 32.84555 | 36536 ft | 429 kts | 187° |
| 2026-05-04 20:56 | 64.23859 | 32.84265 | 36536 ft | 429 kts | 187° |
| 2026-05-04 20:57 | 64.17881 | 32.83995 | 36536 ft | 429 kts | 187° |
| 2026-05-04 20:57 | 64.11911 | 32.83726 | 36536 ft | 429 kts | 187° |
| 2026-05-04 20:58 | 64.05931 | 32.83462 | 36533 ft | 429 kts | 187° |
| 2026-05-04 20:58 | 63.99960 | 32.83193 | 36533 ft | 429 kts | 187° |
| 2026-05-04 20:59 | 63.93989 | 32.82929 | 36529 ft | 429 kts | 187° |
| 2026-05-04 20:59 | 63.88018 | 32.82661 | 36529 ft | 429 kts | 187° |
| 2026-05-04 21:00 | 63.82053 | 32.82391 | 36518 ft | 429 kts | 187° |
| 2026-05-04 21:00 | 63.76124 | 32.82121 | 36497 ft | 428 kts | 187° |
| 2026-05-04 21:01 | 63.70172 | 32.81776 | 36515 ft | 427 kts | 188° |
| 2026-05-04 21:01 | 63.64250 | 32.80906 | 36522 ft | 426 kts | 190° |
| 2026-05-04 21:02 | 63.58346 | 32.79877 | 36522 ft | 426 kts | 190° |
| 2026-05-04 21:02 | 63.52437 | 32.78958 | 36529 ft | 426 kts | 189° |
| 2026-05-04 21:03 | 63.46514 | 32.78217 | 36531 ft | 426 kts | 188° |
| 2026-05-04 21:03 | 63.40586 | 32.77573 | 36517 ft | 426 kts | 188° |
| 2026-05-04 21:04 | 63.34659 | 32.76904 | 36529 ft | 426 kts | 188° |
| 2026-05-04 21:04 | 63.28742 | 32.76214 | 36535 ft | 426 kts | 189° |
| 2026-05-04 21:05 | 63.22829 | 32.75519 | 36536 ft | 426 kts | 189° |
| 2026-05-04 21:05 | 63.16913 | 32.74834 | 36500 ft | 425 kts | 189° |
| 2026-05-04 21:06 | 63.11002 | 32.74158 | 36512 ft | 425 kts | 189° |
| 2026-05-04 21:06 | 63.05087 | 32.73471 | 36516 ft | 425 kts | 189° |
| 2026-05-04 21:07 | 62.99170 | 32.72819 | 36527 ft | 426 kts | 188° |
| 2026-05-04 21:07 | 62.93239 | 32.72573 | 36534 ft | 427 kts | 186° |
| 2026-05-04 21:08 | 62.87295 | 32.72559 | 36537 ft | 427 kts | 186° |
| 2026-05-04 21:08 | 62.81390 | 32.72478 | 36541 ft | 426 kts | 187° |
| 2026-05-04 21:09 | 62.75468 | 32.72122 | 36542 ft | 425 kts | 188° |
| 2026-05-04 21:09 | 62.69554 | 32.71637 | 36529 ft | 425 kts | 188° |
| 2026-05-04 21:10 | 62.63639 | 32.71196 | 36539 ft | 425 kts | 188° |
| 2026-05-04 21:10 | 62.57728 | 32.70806 | 36509 ft | 425 kts | 188° |
| 2026-05-04 21:11 | 62.51825 | 32.70426 | 36533 ft | 424 kts | 188° |
| 2026-05-04 21:11 | 62.45925 | 32.70042 | 36537 ft | 424 kts | 188° |
| 2026-05-04 21:12 | 62.40026 | 32.69652 | 36546 ft | 424 kts | 188° |
| 2026-05-04 21:12 | 62.34125 | 32.69261 | 36543 ft | 424 kts | 188° |
| 2026-05-04 21:13 | 62.28225 | 32.68892 | 36544 ft | 424 kts | 188° |
| 2026-05-04 21:13 | 62.22328 | 32.68509 | 36557 ft | 424 kts | 188° |
| 2026-05-04 21:14 | 62.16432 | 32.68128 | 36560 ft | 424 kts | 188° |
| 2026-05-04 21:14 | 62.10569 | 32.67738 | 36565 ft | 424 kts | 188° |
| 2026-05-04 21:15 | 62.04676 | 32.67371 | 36531 ft | 424 kts | 187° |
| 2026-05-04 21:15 | 61.98783 | 32.66988 | 36538 ft | 423 kts | 188° |
| 2026-05-04 21:16 | 61.92893 | 32.66601 | 36561 ft | 423 kts | 187° |
| 2026-05-04 21:16 | 61.86998 | 32.66226 | 36567 ft | 423 kts | 188° |
| 2026-05-04 21:17 | 61.81108 | 32.65813 | 36578 ft | 423 kts | 188° |
| 2026-05-04 21:17 | 61.75220 | 32.65354 | 36578 ft | 423 kts | 188° |
| 2026-05-04 21:18 | 61.69336 | 32.64885 | 36566 ft | 423 kts | 188° |
| 2026-05-04 21:18 | 61.63460 | 32.64445 | 36575 ft | 423 kts | 188° |
| 2026-05-04 21:19 | 61.57579 | 32.64020 | 36582 ft | 423 kts | 188° |
| 2026-05-04 21:19 | 61.51697 | 32.63596 | 36593 ft | 423 kts | 188° |
| 2026-05-04 21:20 | 61.45847 | 32.63183 | 36593 ft | 423 kts | 188° |
| 2026-05-04 21:20 | 61.39965 | 32.62745 | 36577 ft | 423 kts | 188° |
| 2026-05-04 21:21 | 61.34093 | 32.62318 | 36578 ft | 422 kts | 188° |
| 2026-05-04 21:21 | 61.28216 | 32.61885 | 36606 ft | 422 kts | 188° |
| 2026-05-04 21:22 | 61.22352 | 32.61321 | 36609 ft | 421 kts | 189° |
| 2026-05-04 21:22 | 61.16504 | 32.60453 | 36446 ft | 421 kts | 190° |
| 2026-05-04 21:23 | 61.13587 | 32.59999 | 36191 ft | 419 kts | 190° |
| 2026-05-04 21:23 | 61.10685 | 32.59563 | 35937 ft | 418 kts | 190° |
| 2026-05-04 21:23 | 61.07787 | 32.59152 | 35686 ft | 417 kts | 190° |
| 2026-05-04 21:23 | 61.04887 | 32.58758 | 34998 ft | 419 kts | 190° |
| 2026-05-04 21:24 | 61.01967 | 32.58370 | 34219 ft | 422 kts | 190° |
| 2026-05-04 21:24 | 60.99031 | 32.57983 | 33382 ft | 424 kts | 190° |
| 2026-05-04 21:24 | 60.96115 | 32.57599 | 32672 ft | 412 kts | 190° |
| 2026-05-04 21:24 | 60.93302 | 32.57221 | 32201 ft | 401 kts | 191° |
| 2026-05-04 21:25 | 60.90537 | 32.56824 | 31651 ft | 396 kts | 191° |
| 2026-05-04 21:25 | 60.87802 | 32.56419 | 31129 ft | 392 kts | 191° |
| 2026-05-04 21:25 | 60.85100 | 32.56017 | 30567 ft | 387 kts | 190° |
| 2026-05-04 21:25 | 60.82430 | 32.55624 | 30095 ft | 382 kts | 190° |
| 2026-05-04 21:26 | 60.79791 | 32.55242 | 29566 ft | 378 kts | 190° |
| 2026-05-04 21:26 | 60.77217 | 32.54872 | 29033 ft | 374 kts | 190° |
| 2026-05-04 21:26 | 60.74643 | 32.54499 | 28556 ft | 368 kts | 190° |
| 2026-05-04 21:26 | 60.72115 | 32.54088 | 28072 ft | 361 kts | 193° |
| 2026-05-04 21:27 | 60.69667 | 32.53186 | 27603 ft | 354 kts | 196° |
| 2026-05-04 21:27 | 60.67267 | 32.52260 | 27131 ft | 349 kts | 196° |
| 2026-05-04 21:27 | 60.64886 | 32.51355 | 26686 ft | 346 kts | 196° |
| 2026-05-04 21:27 | 60.62529 | 32.50461 | 26251 ft | 343 kts | 196° |
| 2026-05-04 21:28 | 60.60194 | 32.49577 | 25812 ft | 340 kts | 196° |
| 2026-05-04 21:28 | 60.57874 | 32.48692 | 25382 ft | 337 kts | 197° |
| 2026-05-04 21:28 | 60.55576 | 32.47822 | 24963 ft | 334 kts | 197° |
| 2026-05-04 21:28 | 60.54065 | 32.47252 | 24695 ft | 332 kts | 197° |
| 2026-05-04 21:29 | 60.51803 | 32.46398 | 24297 ft | 329 kts | 197° |
| 2026-05-04 21:29 | 60.49560 | 32.45547 | 23901 ft | 326 kts | 197° |
| 2026-05-04 21:29 | 60.47337 | 32.44707 | 23508 ft | 323 kts | 197° |
| 2026-05-04 21:29 | 60.45136 | 32.43878 | 23082 ft | 320 kts | 197° |
| 2026-05-04 21:30 | 60.42959 | 32.43063 | 22654 ft | 316 kts | 197° |
| 2026-05-04 21:30 | 60.40121 | 32.41999 | 22136 ft | 310 kts | 197° |
| 2026-05-04 21:30 | 60.38693 | 32.41460 | 21878 ft | 308 kts | 197° |
| 2026-05-04 21:30 | 60.35903 | 32.40399 | 21359 ft | 307 kts | 197° |
| 2026-05-04 21:31 | 60.32418 | 32.39083 | 20703 ft | 305 kts | 197° |
| 2026-05-04 21:31 | 60.30309 | 32.38294 | 20294 ft | 304 kts | 197° |
| 2026-05-04 21:31 | 60.28256 | 32.37531 | 19904 ft | 303 kts | 197° |
| 2026-05-04 21:32 | 60.26187 | 32.36763 | 19502 ft | 301 kts | 197° |
| 2026-05-04 21:32 | 60.24129 | 32.35999 | 19102 ft | 300 kts | 197° |
| 2026-05-04 21:32 | 60.22075 | 32.35240 | 18700 ft | 299 kts | 198° |
| 2026-05-04 21:32 | 60.20032 | 32.34483 | 18299 ft | 298 kts | 198° |
| 2026-05-04 21:33 | 60.17991 | 32.33728 | 17892 ft | 298 kts | 198° |
| 2026-05-04 21:33 | 60.15954 | 32.32975 | 17438 ft | 296 kts | 198° |
| 2026-05-04 21:33 | 60.13936 | 32.32227 | 17061 ft | 294 kts | 198° |
| 2026-05-04 21:33 | 60.11933 | 32.31487 | 16682 ft | 292 kts | 198° |
| 2026-05-04 21:34 | 60.09943 | 32.30711 | 16296 ft | 288 kts | 201° |
| 2026-05-04 21:34 | 60.08120 | 32.29237 | 15925 ft | 278 kts | 215° |
| 2026-05-04 21:34 | 60.06592 | 32.26957 | 15550 ft | 272 kts | 227° |
| 2026-05-04 21:34 | 60.05370 | 32.23932 | 15200 ft | 285 kts | 240° |
| 2026-05-04 21:35 | 60.04550 | 32.20306 | 14825 ft | 288 kts | 251° |
| 2026-05-04 21:35 | 60.03911 | 32.16509 | 14459 ft | 287 kts | 250° |
| 2026-05-04 21:35 | 60.03268 | 32.12733 | 14115 ft | 286 kts | 250° |
| 2026-05-04 21:35 | 60.02624 | 32.08963 | 13707 ft | 286 kts | 250° |
| 2026-05-04 21:36 | 60.01978 | 32.05206 | 13314 ft | 285 kts | 250° |
| 2026-05-04 21:36 | 60.01335 | 32.01470 | 12926 ft | 284 kts | 250° |
| 2026-05-04 21:36 | 60.00695 | 31.97751 | 12551 ft | 283 kts | 250° |
| 2026-05-04 21:36 | 60.00055 | 31.94044 | 12174 ft | 282 kts | 250° |
| 2026-05-04 21:37 | 59.99415 | 31.90352 | 11811 ft | 281 kts | 251° |
| 2026-05-04 21:37 | 59.98786 | 31.86719 | 11451 ft | 280 kts | 251° |
| 2026-05-04 21:37 | 59.98151 | 31.83063 | 11090 ft | 278 kts | 251° |
| 2026-05-04 21:37 | 59.97514 | 31.79417 | 10729 ft | 277 kts | 251° |
| 2026-05-04 21:38 | 59.96880 | 31.75787 | 10368 ft | 276 kts | 251° |
| 2026-05-04 21:38 | 59.96249 | 31.72169 | 10012 ft | 275 kts | 251° |
| 2026-05-04 21:38 | 59.95632 | 31.68618 | 9820 ft | 265 kts | 251° |
| 2026-05-04 21:38 | 59.95038 | 31.65211 | 9675 ft | 256 kts | 251° |
| 2026-05-04 21:39 | 59.94459 | 31.61901 | 9484 ft | 249 kts | 251° |
| 2026-05-04 21:39 | 59.93899 | 31.58711 | 9346 ft | 239 kts | 251° |
| 2026-05-04 21:39 | 59.93360 | 31.55652 | 9202 ft | 229 kts | 251° |
| 2026-05-04 21:39 | 59.92834 | 31.52673 | 8897 ft | 226 kts | 251° |
| 2026-05-04 21:40 | 59.92316 | 31.49735 | 8638 ft | 224 kts | 251° |
| 2026-05-04 21:40 | 59.91798 | 31.46809 | 8377 ft | 223 kts | 251° |
| 2026-05-04 21:40 | 59.91281 | 31.43894 | 8123 ft | 223 kts | 251° |
| 2026-05-04 21:40 | 59.90764 | 31.40992 | 7865 ft | 222 kts | 251° |
| 2026-05-04 21:41 | 59.90247 | 31.38099 | 7605 ft | 221 kts | 251° |
| 2026-05-04 21:41 | 59.89732 | 31.35211 | 7357 ft | 221 kts | 251° |
| 2026-05-04 21:41 | 59.89220 | 31.32334 | 7100 ft | 221 kts | 251° |
| 2026-05-04 21:41 | 59.88708 | 31.29460 | 6849 ft | 220 kts | 251° |
| 2026-05-04 21:42 | 59.88193 | 31.26590 | 6598 ft | 220 kts | 251° |
| 2026-05-04 21:42 | 59.87687 | 31.23766 | 6355 ft | 219 kts | 251° |
| 2026-05-04 21:42 | 59.87174 | 31.20916 | 6104 ft | 219 kts | 251° |
| 2026-05-04 21:42 | 59.86662 | 31.18069 | 5849 ft | 217 kts | 251° |
| 2026-05-04 21:43 | 59.86172 | 31.15305 | 5658 ft | 208 kts | 252° |
| 2026-05-04 21:43 | 59.85738 | 31.12575 | 5456 ft | 206 kts | 254° |
| 2026-05-04 21:43 | 59.85327 | 31.09852 | 5295 ft | 206 kts | 255° |
| 2026-05-04 21:43 | 59.84915 | 31.07122 | 5114 ft | 203 kts | 255° |
| 2026-05-04 21:44 | 59.84515 | 31.04483 | 4939 ft | 197 kts | 255° |
| 2026-05-04 21:44 | 59.84119 | 31.01878 | 4776 ft | 197 kts | 255° |
| 2026-05-04 21:44 | 59.83723 | 30.99270 | 4614 ft | 197 kts | 255° |
| 2026-05-04 21:44 | 59.83329 | 30.96694 | 4487 ft | 191 kts | 255° |
| 2026-05-04 21:45 | 59.82948 | 30.94208 | 4356 ft | 186 kts | 255° |
| 2026-05-04 21:45 | 59.82569 | 30.91745 | 4229 ft | 186 kts | 255° |
| 2026-05-04 21:45 | 59.82187 | 30.89285 | 4099 ft | 186 kts | 255° |
| 2026-05-04 21:45 | 59.81806 | 30.86832 | 3969 ft | 186 kts | 255° |
| 2026-05-04 21:46 | 59.81423 | 30.84367 | 3853 ft | 186 kts | 256° |
| 2026-05-04 21:46 | 59.81040 | 30.81903 | 3784 ft | 187 kts | 256° |
| 2026-05-04 21:46 | 59.80656 | 30.79436 | 3661 ft | 187 kts | 256° |
| 2026-05-04 21:46 | 59.80271 | 30.76967 | 3498 ft | 187 kts | 255° |
| 2026-05-04 21:47 | 59.79737 | 30.74605 | 3370 ft | 186 kts | 248° |
| 2026-05-04 21:47 | 59.79177 | 30.72348 | 3252 ft | 178 kts | 248° |
| 2026-05-04 21:47 | 59.78642 | 30.70181 | 3133 ft | 172 kts | 249° |
| 2026-05-04 21:47 | 59.78120 | 30.68063 | 3050 ft | 171 kts | 249° |
| 2026-05-04 21:48 | 59.77606 | 30.65981 | 2905 ft | 164 kts | 249° |
| 2026-05-04 21:48 | 59.77116 | 30.63999 | 2790 ft | 156 kts | 249° |
| 2026-05-04 21:48 | 59.76646 | 30.62099 | 2676 ft | 151 kts | 249° |
| 2026-05-04 21:48 | 59.76199 | 30.60241 | 2585 ft | 147 kts | 254° |
| 2026-05-04 21:49 | 59.76030 | 30.58289 | 2524 ft | 143 kts | 276° |
| 2026-05-04 21:49 | 59.76263 | 30.56419 | 2522 ft | 135 kts | 284° |
| 2026-05-04 21:49 | 59.76490 | 30.54646 | 2498 ft | 131 kts | 285° |
| 2026-05-04 21:49 | 59.76731 | 30.52913 | 2402 ft | 130 kts | 286° |
| 2026-05-04 21:50 | 59.76977 | 30.51220 | 2264 ft | 129 kts | 287° |
| 2026-05-04 21:50 | 59.77230 | 30.49513 | 2099 ft | 129 kts | 287° |
| 2026-05-04 21:50 | 59.77484 | 30.47815 | 1926 ft | 128 kts | 287° |
| 2026-05-04 21:50 | 59.77739 | 30.46119 | 1754 ft | 129 kts | 287° |
| 2026-05-04 21:51 | 59.77994 | 30.44425 | 1580 ft | 128 kts | 287° |
| 2026-05-04 21:51 | 59.78247 | 30.42744 | 1402 ft | 127 kts | 288° |
| 2026-05-04 21:51 | 59.78499 | 30.41068 | 1218 ft | 128 kts | 286° |
| 2026-05-04 21:51 | 59.78752 | 30.39387 | 1046 ft | 127 kts | 286° |
| 2026-05-04 21:52 | 59.79007 | 30.37704 | 882 ft | 128 kts | 287° |
| 2026-05-04 21:52 | 59.79244 | 30.36012 | 733 ft | 127 kts | 286° |
| 2026-05-04 21:52 | 59.79501 | 30.34322 | 542 ft | 127 kts | 286° |
| 2026-05-04 21:52 | 59.79747 | 30.32645 | 357 ft | 126 kts | 286° |
| 2026-05-04 21:53 | 59.80004 | 30.30973 | 199 ft | 129 kts | 287° |
| 2026-05-04 21:53 | 59.80251 | 30.29312 | 82 ft | 114 kts | 287° |
| 2026-05-04 21:53 | 59.80444 | 30.28076 | 78 ft | 70 kts | 287° |
| 2026-05-04 21:53 | 59.80542 | 30.27429 | 80 ft | 37 kts | 287° |
| 2026-05-04 21:54 | 59.80608 | 30.26993 | 81 ft | 23 kts | 287° |
| 2026-05-04 21:54 | 59.80645 | 30.26749 | 79 ft | 14 kts | 283° |
| 2026-05-04 21:54 | 59.80605 | 30.26644 | 80 ft | 8 kts | 195° |
| 2026-05-04 21:54 | 59.80560 | 30.26618 | 80 ft | 6 kts | 196° |
| 2026-05-04 21:55 | 59.80520 | 30.26595 | 86 ft | 6 kts | 197° |
| 2026-05-04 21:55 | 59.80479 | 30.26570 | 82 ft | 7 kts | 197° |
| 2026-05-04 21:55 | 59.80437 | 30.26591 | 80 ft | 7 kts | 128° |
| 2026-05-04 21:55 | 59.80422 | 30.26682 | 80 ft | 7 kts | 106° |
| 2026-05-04 21:56 | 59.80408 | 30.26781 | 80 ft | 8 kts | 106° |
| 2026-05-04 21:56 | 59.80393 | 30.26886 | 80 ft | 8 kts | 106° |
| 2026-05-04 21:56 | 59.80376 | 30.26996 | 80 ft | 9 kts | 108° |
| 2026-05-04 21:56 | 59.80359 | 30.27103 | 84 ft | 8 kts | 107° |
| 2026-05-04 21:57 | 59.80342 | 30.27212 | 84 ft | 9 kts | 106° |
| 2026-05-04 21:57 | 59.80322 | 30.27349 | 81 ft | 11 kts | 106° |
| 2026-05-04 21:57 | 59.80300 | 30.27502 | 82 ft | 12 kts | 106° |
| 2026-05-04 21:57 | 59.80276 | 30.27663 | 80 ft | 12 kts | 106° |
| 2026-05-04 21:58 | 59.80251 | 30.27829 | 80 ft | 13 kts | 107° |
| 2026-05-04 21:58 | 59.80226 | 30.27993 | 82 ft | 13 kts | 107° |
| 2026-05-04 21:58 | 59.80203 | 30.28124 | 79 ft | 7 kts | 128° |
| 2026-05-04 21:58 | 59.80160 | 30.28114 | 80 ft | 6 kts | 206° |
| 2026-05-04 21:59 | 59.80149 | 30.28064 | 82 ft | 3 kts | 272° |
| 2026-05-04 21:59 | 59.80159 | 30.27988 | 84 ft | 8 kts | 287° |
| 2026-05-04 21:59 | 59.80177 | 30.27873 | 83 ft | 9 kts | 287° |
| 2026-05-04 21:59 | 59.80196 | 30.27746 | 82 ft | 10 kts | 287° |
| 2026-05-04 22:00 | 59.80216 | 30.27616 | 82 ft | 9 kts | 287° |
| 2026-05-04 22:00 | 59.80230 | 30.27522 | 79 ft | 6 kts | 285° |
| 2026-05-04 22:00 | 59.80230 | 30.27520 | 79 ft | 0 kts | 285° |
| 2026-05-04 22:03 | 59.80223 | 30.27629 | 88 ft | 16 kts | 94° |
| 2026-05-04 22:03 | 59.80220 | 30.27843 | 79 ft | 16 kts | 89° |
| 2026-05-04 22:03 | 59.80217 | 30.28053 | 78 ft | 11 kts | 101° |
| 2026-05-04 22:03 | 59.80184 | 30.28130 | 80 ft | 11 kts | 193° |
| 2026-05-04 22:04 | 59.80147 | 30.28083 | 84 ft | 7 kts | 277° |
| 2026-05-04 22:04 | 59.80159 | 30.27994 | 84 ft | 7 kts | 287° |
| 2026-05-04 22:04 | 59.80172 | 30.27905 | 80 ft | 7 kts | 287° |
| 2026-05-04 22:04 | 59.80186 | 30.27815 | 80 ft | 7 kts | 287° |
| 2026-05-04 22:05 | 59.80199 | 30.27727 | 81 ft | 7 kts | 287° |
| 2026-05-04 22:05 | 59.80213 | 30.27638 | 79 ft | 7 kts | 287° |
| 2026-05-04 22:05 | 59.80226 | 30.27549 | 80 ft | 7 kts | 287° |
| 2026-05-04 22:05 | 59.80239 | 30.27460 | 81 ft | 7 kts | 287° |
| 2026-05-04 22:06 | 59.80252 | 30.27379 | 81 ft | 7 kts | 284° |
| 2026-05-04 22:06 | 59.80239 | 30.27348 | 82 ft | 7 kts | 188° |
| 2026-05-04 22:06 | 59.80225 | 30.27342 | 82 ft | 0 kts | 195° |
| 2026-05-04 22:12 | 59.80231 | 30.27347 | 91 ft | 3 kts | 169° |
| 2026-05-04 22:12 | 59.80246 | 30.27327 | 91 ft | 3 kts | 129° |
| 2026-05-04 22:13 | 59.80258 | 30.27299 | 86 ft | 3 kts | 108° |
| 2026-05-04 22:13 | 59.80267 | 30.27268 | 88 ft | 3 kts | 124° |
| 2026-05-04 22:13 | 59.80272 | 30.27239 | 88 ft | 0 kts | 104° |